createdAt,value
2023-01-19T04:48:00.778Z,3.96
2023-01-19T04:51:04.151Z,3.96
2023-01-19T04:54:09.011Z,3.54
2023-01-19T04:57:11.852Z,3.58
2023-01-19T05:00:14.795Z,3.65
2023-01-19T05:03:17.678Z,3.65
2023-01-19T05:06:20.230Z,3.70
2023-01-19T05:09:22.913Z,3.83
2023-01-19T05:12:25.350Z,3.75
2023-01-19T05:15:28.014Z,3.86
2023-01-19T05:18:35.910Z,3.78
2023-01-19T05:21:39.000Z,3.78
2023-01-19T05:24:41.425Z,3.78
2023-01-19T05:27:44.736Z,3.80
2023-01-19T05:30:49.029Z,3.78
2023-01-19T05:33:56.230Z,3.74
2023-01-19T05:36:59.027Z,3.61
2023-01-19T05:40:02.061Z,3.70
2023-01-19T05:43:05.273Z,3.69
2023-01-19T05:46:08.300Z,3.67
2023-01-19T05:49:12.890Z,3.57
2023-01-19T05:52:15.542Z,3.69
2023-01-19T05:55:17.883Z,3.68
2023-01-19T05:58:21.110Z,3.68
2023-01-19T06:01:23.604Z,3.67
2023-01-19T06:04:26.847Z,3.69
2023-01-19T06:07:29.387Z,3.73
2023-01-19T06:10:32.967Z,3.73
2023-01-19T06:13:35.417Z,3.72
2023-01-19T06:16:38.210Z,3.77
2023-01-19T06:19:41.920Z,3.78
2023-01-19T06:22:44.735Z,3.79
2023-01-19T06:25:49.154Z,3.78
2023-01-19T06:28:52.282Z,3.71
2023-01-19T06:31:55.029Z,3.66
2023-01-19T06:34:58.096Z,3.68
2023-01-19T06:38:00.419Z,3.67
2023-01-19T06:41:03.329Z,3.65
2023-01-19T06:44:06.133Z,3.65
2023-01-19T06:47:15.208Z,3.70
2023-01-19T06:50:18.543Z,3.72
2023-01-19T06:53:22.362Z,3.74
2023-01-19T06:56:25.488Z,3.79
2023-01-19T06:59:28.364Z,3.78
2023-01-19T07:02:30.902Z,3.78
2023-01-19T07:05:35.799Z,3.77
2023-01-19T07:08:38.662Z,3.82
2023-01-19T07:11:41.571Z,3.83
2023-01-19T07:14:44.093Z,3.86
2023-01-19T07:17:47.431Z,3.83
2023-01-19T07:20:49.909Z,3.84
2023-01-19T07:23:52.925Z,3.89
2023-01-19T07:26:55.650Z,3.94
2023-01-19T07:29:58.383Z,4.02
2023-01-19T07:33:02.738Z,4.05
2023-01-19T07:36:06.262Z,4.08
2023-01-19T07:39:08.646Z,4.11
2023-01-19T07:42:12.492Z,4.17
2023-01-19T07:45:17.042Z,4.25
2023-01-19T07:48:19.795Z,4.19
2023-01-19T07:51:22.334Z,4.23
2023-01-19T07:54:25.481Z,4.23
2023-01-19T07:57:28.505Z,4.27
2023-01-19T08:00:31.510Z,4.21
2023-01-19T08:03:34.377Z,4.22
2023-01-19T08:06:39.217Z,4.24
2023-01-19T08:09:41.967Z,4.35
2023-01-19T08:12:44.528Z,4.39
2023-01-19T08:15:54.641Z,4.42
2023-01-19T08:18:57.293Z,4.46
2023-01-19T08:22:00.187Z,4.50
2023-01-19T08:25:02.614Z,4.47
2023-01-19T08:28:06.760Z,4.51
2023-01-19T08:31:19.668Z,4.50
2023-01-19T08:34:24.598Z,4.53
2023-01-19T08:37:27.712Z,4.62
2023-01-19T08:40:33.829Z,4.55
2023-01-19T08:43:37.950Z,4.58
2023-01-19T08:46:41.157Z,4.68
2023-01-19T08:49:44.079Z,4.71
2023-01-19T08:52:46.914Z,4.70
2023-01-19T08:55:50.629Z,4.77
2023-01-19T08:59:08.258Z,4.82
2023-01-19T09:02:12.091Z,4.74
2023-01-19T09:05:15.298Z,4.68
2023-01-19T09:08:18.145Z,4.60
2023-01-19T09:11:20.998Z,4.68
2023-01-19T09:14:23.684Z,4.60
2023-01-19T09:17:26.819Z,4.63
2023-01-19T09:20:31.106Z,4.64
2023-01-19T09:23:34.367Z,4.61
2023-01-19T09:26:37.724Z,4.54
2023-01-19T09:29:40.441Z,4.50
2023-01-19T09:32:43.048Z,4.57
2023-01-19T09:35:47.488Z,4.56
2023-01-19T09:38:50.806Z,4.63
2023-01-19T09:42:07.228Z,4.68
2023-01-19T09:45:38.622Z,4.66
2023-01-19T09:48:57.752Z,4.74
2023-01-19T09:52:00.626Z,4.74
2023-01-19T09:55:03.629Z,4.73
2023-01-19T09:58:13.739Z,4.78
2023-01-19T10:02:01.670Z,4.73
2023-01-19T10:05:23.072Z,4.62
2023-01-19T10:08:32.326Z,4.51
2023-01-19T10:12:26.632Z,4.46
2023-01-19T10:15:56.813Z,4.43
2023-01-19T10:19:12.999Z,4.36
2023-01-19T10:22:28.447Z,4.29
2023-01-19T10:25:33.296Z,4.25
2023-01-19T10:28:37.847Z,4.23
2023-01-19T10:31:44.755Z,4.11
2023-01-19T10:34:49.204Z,4.15
2023-01-19T10:38:02.759Z,4.22
2023-01-19T10:41:11.741Z,4.21
2023-01-19T10:44:24.120Z,4.08
2023-01-19T10:47:34.301Z,4.12
2023-01-19T10:50:40.945Z,4.15
2023-01-19T10:53:57.557Z,4.09
2023-01-19T10:57:07.410Z,4.11
2023-01-19T11:00:40.516Z,3.94
2023-01-19T11:03:43.604Z,3.96
2023-01-19T11:06:45.968Z,3.86
2023-01-19T11:09:53.751Z,3.85
2023-01-19T11:13:13.516Z,3.86
2023-01-19T11:16:26.785Z,3.75
2023-01-19T11:19:32.272Z,3.80
2023-01-19T11:22:34.980Z,3.81
2023-01-19T11:25:37.676Z,3.83
2023-01-19T11:28:46.030Z,3.80
2023-01-19T11:31:49.366Z,3.77
2023-01-19T11:34:52.234Z,3.82
2023-01-19T11:38:27.284Z,3.91
2023-01-19T11:41:36.350Z,3.96
2023-01-19T11:45:01.114Z,3.99
2023-01-19T11:48:07.285Z,4.12
2023-01-19T11:51:16.193Z,4.17
2023-01-19T11:54:25.627Z,4.15
2023-01-19T11:57:28.234Z,4.37
2023-01-19T12:00:36.944Z,4.43
2023-01-19T12:03:45.183Z,4.44
2023-01-19T12:06:56.645Z,4.46
2023-01-19T12:10:17.848Z,4.31
2023-01-19T12:13:23.383Z,4.40
2023-01-19T12:16:33.038Z,4.39
2023-01-19T12:19:50.545Z,4.27
2023-01-19T12:23:19.399Z,4.32
2023-01-19T12:26:49.330Z,4.39
2023-01-19T12:29:54.605Z,4.41
2023-01-19T12:33:22.211Z,4.38
2023-01-19T12:36:36.639Z,4.29
2023-01-19T12:39:48.175Z,4.21
2023-01-19T12:43:03.896Z,4.31
2023-01-19T12:46:30.992Z,4.32
2023-01-19T12:49:49.711Z,4.40
2023-01-19T12:52:58.702Z,4.38
2023-01-19T12:56:08.658Z,4.38
2023-01-19T12:59:25.351Z,4.40
2023-01-19T13:02:27.990Z,4.37
2023-01-19T13:05:39.535Z,4.35
2023-01-19T13:09:00.069Z,4.33
2023-01-19T13:12:32.256Z,4.53
2023-01-19T13:15:36.033Z,4.56
2023-01-19T13:18:41.424Z,4.58
2023-01-19T13:21:49.509Z,4.48
2023-01-19T13:25:09.924Z,4.38
2023-01-19T13:28:16.067Z,4.30
2023-01-19T13:31:19.794Z,4.18
2023-01-19T13:34:26.012Z,4.04
2023-01-19T13:37:37.798Z,4.06
2023-01-19T13:40:40.972Z,4.12
2023-01-19T13:43:43.913Z,4.05
2023-01-19T13:46:48.222Z,4.00
2023-01-19T13:49:56.584Z,3.97
2023-01-19T13:53:00.157Z,3.96
2023-01-19T13:56:27.727Z,4.07
2023-01-19T13:59:30.387Z,3.96
2023-01-19T14:02:33.469Z,3.94
2023-01-19T14:05:41.671Z,3.81
2023-01-19T14:08:44.231Z,3.79
2023-01-19T14:12:05.198Z,3.76
2023-01-19T14:15:14.000Z,3.72
2023-01-19T14:18:16.581Z,3.74
2023-01-19T14:21:18.987Z,3.74
2023-01-19T14:24:23.915Z,3.78
2023-01-19T14:27:26.426Z,3.80
2023-01-19T14:30:29.162Z,3.78
2023-01-19T14:33:39.985Z,3.77
2023-01-19T14:36:42.632Z,3.79
2023-01-19T14:39:48.145Z,3.97
2023-01-19T14:42:57.447Z,4.05
2023-01-19T14:45:59.857Z,4.11
2023-01-19T14:49:05.748Z,4.09
2023-01-19T14:52:27.783Z,4.00
2023-01-19T14:55:38.022Z,3.86
2023-01-19T14:58:41.107Z,3.87
2023-01-19T15:01:47.074Z,3.83
2023-01-19T15:04:53.879Z,3.87
2023-01-19T15:07:56.617Z,3.78
2023-01-19T15:11:09.174Z,3.84
2023-01-19T15:14:14.536Z,3.76
2023-01-19T15:17:25.370Z,3.80
2023-01-19T15:20:28.829Z,3.70
2023-01-19T15:23:32.604Z,3.62
2023-01-19T15:26:36.697Z,3.73
2023-01-19T15:29:42.066Z,3.65
2023-01-19T15:32:45.516Z,3.45
2023-01-19T15:35:48.947Z,3.36
2023-01-19T15:38:51.620Z,3.36
2023-01-19T15:41:54.322Z,3.30
2023-01-19T15:44:57.017Z,3.29
2023-01-19T15:48:04.941Z,3.25
2023-01-19T15:51:15.506Z,3.30
2023-01-19T15:54:19.052Z,3.33
2023-01-19T15:57:22.218Z,3.24
2023-01-19T16:00:25.112Z,3.28
2023-01-19T16:03:27.905Z,3.22
2023-01-19T16:06:32.108Z,3.20
2023-01-19T16:09:40.345Z,3.21
2023-01-19T16:12:47.889Z,3.27
2023-01-19T16:15:50.673Z,3.22
2023-01-19T16:18:53.238Z,3.29
2023-01-19T16:21:55.927Z,3.20
2023-01-19T16:24:58.776Z,3.29
2023-01-19T16:28:01.471Z,3.34
2023-01-19T16:31:04.771Z,3.18
2023-01-19T16:34:08.807Z,3.16
2023-01-19T16:37:11.759Z,3.16
2023-01-19T16:40:14.971Z,3.27
2023-01-19T16:43:18.567Z,3.21
2023-01-19T16:46:27.280Z,3.14
2023-01-19T16:49:30.667Z,3.17
2023-01-19T16:52:34.009Z,3.27
